createdAt,value
2023-01-12T00:01:42.583Z,5.53
2023-01-12T00:04:12.514Z,5.48
2023-01-12T00:06:39.383Z,5.15
2023-01-12T00:09:08.760Z,5.47
2023-01-12T00:11:37.145Z,5.48
2023-01-12T00:14:05.253Z,4.97
2023-01-12T00:16:35.060Z,4.47
2023-01-12T00:19:05.596Z,5.50
2023-01-12T00:21:35.723Z,5.45
2023-01-12T00:24:02.400Z,5.48
2023-01-12T00:26:29.002Z,4.56
2023-01-12T00:28:55.558Z,4.97
2023-01-12T00:31:22.172Z,5.44
2023-01-12T00:33:48.793Z,5.32
2023-01-12T00:36:18.843Z,5.20
2023-01-12T00:38:45.484Z,4.61
2023-01-12T00:41:33.149Z,5.31
2023-01-12T00:44:18.442Z,4.50
2023-01-12T00:46:45.052Z,5.22
2023-01-12T00:49:11.637Z,5.20
2023-01-12T00:51:38.219Z,4.98
2023-01-12T00:54:07.465Z,5.22
2023-01-12T00:56:35.519Z,4.73
2023-01-12T00:59:03.141Z,5.27
2023-01-12T01:01:29.958Z,5.30
2023-01-12T01:03:56.549Z,5.34
2023-01-12T01:06:23.371Z,5.21
2023-01-12T01:08:50.197Z,5.32
2023-01-12T01:11:17.194Z,5.37
2023-01-12T01:13:44.217Z,5.33
2023-01-12T01:16:14.170Z,5.35
2023-01-12T01:18:41.272Z,5.36
2023-01-12T01:21:12.858Z,5.37
2023-01-12T01:23:40.456Z,5.09
2023-01-12T01:26:13.602Z,5.39
2023-01-12T01:28:41.536Z,5.39
2023-01-12T01:31:11.381Z,5.39
2023-01-12T01:33:38.327Z,4.42
2023-01-12T01:36:05.271Z,5.44
2023-01-12T01:38:32.517Z,5.45
2023-01-12T01:40:59.501Z,5.37
2023-01-12T01:43:28.687Z,5.40
2023-01-12T01:46:10.692Z,5.52
2023-01-12T01:48:39.547Z,5.06
2023-01-12T01:51:12.099Z,5.39
2023-01-12T01:53:41.904Z,5.63
2023-01-12T01:56:14.043Z,5.66
2023-01-12T01:58:49.311Z,5.59
2023-01-12T02:01:16.047Z,5.33
2023-01-12T02:03:42.906Z,5.68
2023-01-12T02:06:09.609Z,5.31
2023-01-12T02:09:03.911Z,5.74
2023-01-12T02:11:48.937Z,5.76
2023-01-12T02:14:34.060Z,5.78
2023-01-12T02:17:25.963Z,4.80
2023-01-12T02:20:17.580Z,5.79
2023-01-12T02:22:58.384Z,5.77
2023-01-12T02:25:52.400Z,5.79
2023-01-12T02:28:31.102Z,5.80
2023-01-12T02:31:00.659Z,5.80
2023-01-12T02:33:40.442Z,5.78
2023-01-12T02:36:42.346Z,5.80
2023-01-12T02:39:24.473Z,5.81
2023-01-12T02:42:21.701Z,5.84
2023-01-12T02:44:56.976Z,5.85
2023-01-12T02:47:51.114Z,5.88
2023-01-12T02:50:23.865Z,5.90
2023-01-12T02:52:56.596Z,5.53
2023-01-12T02:55:25.553Z,5.36
2023-01-12T02:57:54.867Z,5.91
2023-01-12T03:00:22.147Z,5.91
2023-01-12T03:02:50.590Z,5.29
2023-01-12T03:05:26.029Z,5.88
2023-01-12T03:07:58.824Z,5.47
2023-01-12T03:10:44.111Z,5.83
2023-01-12T03:13:14.973Z,5.82
2023-01-12T03:15:47.339Z,5.84
2023-01-12T03:18:22.943Z,5.85
2023-01-12T03:21:29.719Z,5.10
2023-01-12T03:24:07.985Z,5.40
2023-01-12T03:26:38.274Z,5.83
2023-01-12T03:29:19.455Z,5.83
2023-01-12T03:31:46.616Z,5.42
2023-01-12T03:34:13.295Z,5.86
2023-01-12T03:36:40.018Z,5.85
2023-01-12T03:39:37.425Z,5.88
2023-01-12T03:42:22.740Z,5.89
2023-01-12T03:45:01.979Z,5.89
2023-01-12T03:47:31.238Z,5.88
2023-01-12T03:50:06.229Z,4.77
2023-01-12T03:52:37.196Z,5.78
2023-01-12T03:55:07.535Z,4.32
2023-01-12T03:57:36.618Z,5.59
2023-01-12T04:00:07.244Z,5.64
2023-01-12T04:02:39.327Z,4.92
2023-01-12T04:05:07.825Z,5.52
2023-01-12T04:07:34.441Z,5.43
2023-01-12T04:10:01.011Z,5.36
2023-01-12T04:12:27.551Z,4.22
2023-01-12T04:14:54.174Z,5.05
2023-01-12T04:17:24.968Z,4.17
2023-01-12T04:19:52.219Z,4.31
2023-01-12T04:22:37.659Z,5.02
2023-01-12T04:25:05.039Z,4.10
2023-01-12T04:27:31.646Z,4.88
2023-01-12T04:29:58.565Z,4.81
2023-01-12T04:32:25.128Z,4.81
2023-01-12T04:34:51.759Z,4.76
2023-01-12T04:37:18.845Z,4.74
2023-01-12T04:39:45.389Z,4.70
2023-01-12T04:42:31.942Z,4.46
2023-01-12T04:44:58.532Z,4.60
2023-01-12T04:47:25.074Z,4.16
2023-01-12T04:49:51.619Z,4.55
2023-01-12T04:52:18.196Z,4.52
2023-01-12T04:54:44.771Z,4.51
2023-01-12T04:57:11.342Z,4.15
2023-01-12T04:59:37.889Z,3.37
2023-01-12T05:02:04.505Z,4.47
2023-01-12T05:04:31.201Z,3.55
2023-01-12T05:06:57.795Z,4.50
2023-01-12T05:09:42.917Z,3.54
2023-01-12T05:12:09.519Z,4.59
2023-01-12T05:14:36.102Z,4.61
2023-01-12T05:17:02.697Z,3.79
2023-01-12T05:19:29.218Z,4.57
2023-01-12T05:21:55.789Z,4.69
2023-01-12T05:24:22.417Z,4.69
2023-01-12T05:26:48.986Z,4.67
2023-01-12T05:29:15.545Z,4.35
2023-01-12T05:31:42.160Z,4.74
2023-01-12T05:34:08.807Z,4.77
2023-01-12T05:36:35.366Z,4.59
2023-01-12T05:39:02.735Z,4.81
2023-01-12T05:41:29.266Z,4.49
2023-01-12T05:43:56.138Z,4.87
2023-01-12T05:46:29.861Z,4.90
2023-01-12T05:48:57.881Z,4.91
2023-01-12T05:51:26.519Z,4.62
2023-01-12T05:53:54.191Z,4.96
2023-01-12T05:56:26.444Z,5.00
2023-01-12T05:58:54.901Z,4.61
2023-01-12T06:01:22.204Z,4.72
2023-01-12T06:03:50.650Z,5.06
2023-01-12T06:06:18.828Z,4.23
2023-01-12T06:08:45.898Z,5.00
2023-01-12T06:11:32.334Z,5.12
2023-01-12T06:14:00.436Z,5.16
2023-01-12T06:16:27.867Z,5.17
2023-01-12T06:18:54.978Z,5.08
2023-01-12T06:21:21.961Z,5.08
2023-01-12T06:23:48.695Z,5.22
2023-01-12T06:26:15.319Z,5.25
2023-01-12T06:28:42.853Z,4.62
2023-01-12T06:31:11.451Z,5.19
2023-01-12T06:33:38.412Z,5.32
2023-01-12T06:36:05.321Z,4.60
2023-01-12T06:38:33.735Z,5.35
2023-01-12T06:41:08.665Z,5.37
2023-01-12T06:43:35.280Z,4.92
2023-01-12T06:46:02.768Z,5.29
2023-01-12T06:48:38.641Z,5.35
2023-01-12T06:51:06.165Z,5.46
2023-01-12T06:53:32.744Z,4.69
2023-01-12T06:55:59.330Z,5.47
2023-01-12T06:58:25.915Z,4.54
2023-01-12T07:00:52.557Z,4.81
2023-01-12T07:03:20.242Z,5.50
2023-01-12T07:05:46.865Z,5.12
2023-01-12T07:08:16.001Z,5.53
2023-01-12T07:10:43.301Z,4.98
2023-01-12T07:13:10.245Z,5.49
2023-01-12T07:15:36.961Z,4.94
2023-01-12T07:18:03.759Z,4.98
2023-01-12T07:20:30.439Z,5.15
2023-01-12T07:22:57.023Z,5.41
2023-01-12T07:25:25.059Z,4.69
2023-01-12T07:27:56.814Z,5.24
2023-01-12T07:30:25.407Z,5.46
2023-01-12T07:32:52.280Z,5.06
2023-01-12T07:35:19.036Z,5.52
2023-01-12T07:37:51.804Z,5.52
2023-01-12T07:40:19.848Z,5.42
2023-01-12T07:42:46.377Z,5.38
2023-01-12T07:45:13.071Z,5.18
2023-01-12T07:47:39.817Z,4.72
2023-01-12T07:50:07.098Z,5.19
2023-01-12T07:52:33.790Z,5.61
2023-01-12T07:55:00.380Z,5.54
2023-01-12T07:57:27.042Z,5.65
2023-01-12T07:59:53.651Z,5.67
2023-01-12T08:02:20.300Z,5.71
2023-01-12T08:04:47.117Z,5.21
2023-01-12T08:07:14.926Z,5.45
2023-01-12T08:09:41.698Z,5.07
2023-01-12T08:12:08.324Z,5.13
2023-01-12T08:14:38.326Z,5.75
2023-01-12T08:17:11.350Z,5.92
2023-01-12T08:19:58.319Z,5.93
2023-01-12T08:22:31.568Z,5.99
2023-01-12T08:25:06.179Z,5.26
2023-01-12T08:27:36.657Z,6.08
2023-01-12T08:30:08.131Z,5.49
2023-01-12T08:32:35.843Z,5.88
2023-01-12T08:35:04.335Z,6.21
2023-01-12T08:37:32.616Z,5.75
2023-01-12T08:39:59.250Z,5.52
2023-01-12T08:42:28.775Z,5.98
2023-01-12T08:44:56.390Z,6.42
2023-01-12T08:47:28.684Z,6.46
2023-01-12T08:49:56.092Z,6.41
2023-01-12T08:52:23.113Z,6.30
2023-01-12T08:54:49.972Z,6.62
2023-01-12T08:57:17.003Z,6.68
2023-01-12T08:59:43.603Z,6.58
2023-01-12T09:02:15.045Z,6.74
2023-01-12T09:04:42.024Z,6.73
2023-01-12T09:07:10.250Z,6.79
2023-01-12T09:09:37.219Z,6.82
2023-01-12T09:12:04.246Z,6.83
2023-01-12T09:14:31.006Z,6.41
2023-01-12T09:16:57.748Z,6.20
2023-01-12T09:19:24.418Z,6.30
2023-01-12T09:21:51.002Z,6.88
2023-01-12T09:24:17.698Z,6.88
2023-01-12T09:26:46.719Z,6.89
2023-01-12T09:29:14.544Z,6.91
2023-01-12T09:31:44.029Z,6.97
2023-01-12T09:34:11.214Z,5.56
2023-01-12T09:36:40.110Z,7.04
2023-01-12T09:39:12.752Z,7.08
2023-01-12T09:42:07.714Z,7.12
2023-01-12T09:44:53.192Z,7.14
2023-01-12T09:47:32.017Z,7.10
2023-01-12T09:50:08.998Z,7.10
2023-01-12T09:52:50.237Z,7.22
2023-01-12T09:55:22.676Z,6.72
2023-01-12T09:57:58.617Z,6.61
2023-01-12T10:00:27.459Z,7.34
2023-01-12T10:03:16.216Z,7.37
2023-01-12T10:05:49.253Z,7.44
2023-01-12T10:08:41.935Z,7.04
2023-01-12T10:11:16.738Z,7.58
2023-01-12T10:14:38.181Z,7.64
2023-01-12T10:17:13.581Z,7.70
2023-01-12T10:19:50.681Z,7.74
2023-01-12T10:22:40.112Z,7.64
2023-01-12T10:25:24.907Z,7.97
2023-01-12T10:27:54.309Z,8.01
2023-01-12T10:30:33.651Z,8.00
2023-01-12T10:33:15.453Z,7.99
2023-01-12T10:36:02.061Z,7.97
2023-01-12T10:38:34.724Z,7.94
2023-01-12T10:41:10.472Z,7.92
2023-01-12T10:43:39.313Z,7.89
2023-01-12T10:46:11.674Z,7.88
2023-01-12T10:48:42.581Z,7.87
2023-01-12T10:51:30.152Z,7.85
2023-01-12T10:54:11.637Z,7.78
2023-01-12T10:56:39.366Z,7.74
2023-01-12T10:59:21.400Z,7.76
2023-01-12T11:02:14.305Z,7.72
2023-01-12T11:04:44.186Z,7.73
2023-01-12T11:07:21.801Z,6.80
2023-01-12T11:09:49.200Z,7.85
2023-01-12T11:12:30.988Z,7.70
2023-01-12T11:15:03.810Z,7.60
2023-01-12T11:17:59.672Z,7.72
2023-01-12T11:20:28.941Z,7.76
2023-01-12T11:23:01.087Z,6.52
2023-01-12T11:25:34.290Z,6.98
2023-01-12T11:28:07.317Z,7.59
2023-01-12T11:30:44.269Z,7.67
2023-01-12T11:33:20.431Z,7.66
2023-01-12T11:35:58.958Z,7.65
2023-01-12T11:38:42.513Z,7.65
2023-01-12T11:42:05.307Z,7.65
2023-01-12T11:44:46.934Z,7.70
2023-01-12T11:47:15.577Z,6.57
2023-01-12T11:49:53.385Z,6.88
2023-01-12T11:52:20.017Z,7.77
2023-01-12T11:54:46.600Z,7.89
2023-01-12T11:57:20.279Z,8.02
2023-01-12T12:00:05.522Z,8.10
2023-01-12T12:02:37.514Z,8.18
2023-01-12T12:05:20.389Z,8.23
2023-01-12T12:08:07.106Z,8.25
2023-01-12T12:10:50.676Z,8.27
2023-01-12T12:14:02.491Z,8.23
2023-01-12T12:16:47.664Z,8.21
2023-01-12T12:19:40.250Z,8.22
2023-01-12T12:22:46.650Z,8.19
2023-01-12T12:25:44.781Z,8.20
2023-01-12T12:28:18.515Z,8.08
2023-01-12T12:30:53.949Z,8.10
2023-01-12T12:33:58.889Z,8.08
2023-01-12T12:36:44.223Z,7.82
2023-01-12T12:39:22.491Z,7.70
2023-01-12T12:42:22.919Z,8.02
2023-01-12T12:45:16.085Z,8.01
2023-01-12T12:48:03.887Z,8.03
2023-01-12T12:50:30.432Z,8.05
2023-01-12T12:53:12.535Z,8.11
2023-01-12T12:55:39.510Z,7.90
2023-01-12T12:58:27.025Z,8.09
2023-01-12T13:00:56.741Z,8.05
2023-01-12T13:03:41.460Z,8.13
2023-01-12T13:06:19.877Z,8.16
2023-01-12T13:08:49.081Z,8.17
2023-01-12T13:11:15.724Z,7.44
2023-01-12T13:14:03.093Z,8.26
2023-01-12T13:16:29.665Z,8.34
2023-01-12T13:18:56.191Z,8.37
2023-01-12T13:21:41.281Z,8.39
2023-01-12T13:24:11.316Z,8.42
2023-01-12T13:26:43.645Z,7.19
2023-01-12T13:29:28.943Z,8.48
2023-01-12T13:32:19.898Z,8.47
2023-01-12T13:34:46.580Z,8.29
2023-01-12T13:37:19.192Z,8.41
2023-01-12T13:39:59.324Z,8.08
2023-01-12T13:42:46.103Z,8.38
2023-01-12T13:45:20.919Z,8.38
2023-01-12T13:47:50.145Z,8.39
2023-01-12T13:50:19.965Z,8.46
2023-01-12T13:52:57.233Z,8.45
2023-01-12T13:55:27.937Z,8.48
2023-01-12T13:58:17.305Z,8.38
2023-01-12T14:00:54.285Z,8.57
2023-01-12T14:03:37.913Z,8.61
2023-01-12T14:06:24.700Z,8.66
2023-01-12T14:09:23.201Z,8.68
2023-01-12T14:12:05.037Z,8.68
2023-01-12T14:15:19.851Z,8.76
2023-01-12T14:17:49.188Z,7.81
2023-01-12T14:20:19.168Z,8.76
2023-01-12T14:22:46.044Z,7.76
2023-01-12T14:25:14.504Z,8.75
2023-01-12T14:27:49.502Z,8.73
2023-01-12T14:30:16.150Z,8.00
2023-01-12T14:32:48.643Z,8.67
2023-01-12T14:35:17.422Z,8.67
2023-01-12T14:37:49.719Z,8.62
2023-01-12T14:40:31.620Z,8.58
2023-01-12T14:43:20.033Z,8.42
2023-01-12T14:46:17.524Z,8.54
2023-01-12T14:48:58.033Z,8.49
2023-01-12T14:51:38.233Z,7.99
2023-01-12T14:54:07.950Z,8.44
2023-01-12T14:56:41.688Z,8.44
2023-01-12T14:59:14.787Z,8.38
2023-01-12T15:01:42.186Z,8.46
2023-01-12T15:04:17.395Z,7.28
2023-01-12T15:06:46.067Z,7.99
2023-01-12T15:09:34.933Z,8.44
2023-01-12T15:12:30.666Z,8.44
2023-01-12T15:15:19.231Z,8.44
2023-01-12T15:18:05.057Z,8.42
2023-01-12T15:20:55.851Z,7.59
2023-01-12T15:23:47.869Z,8.38
2023-01-12T15:26:14.610Z,8.18
2023-01-12T15:28:41.892Z,8.36
2023-01-12T15:31:33.186Z,8.38
2023-01-12T15:34:01.135Z,8.35
2023-01-12T15:36:27.893Z,8.38
2023-01-12T15:38:54.810Z,8.35
2023-01-12T15:41:46.567Z,7.56
2023-01-12T15:44:22.271Z,8.22
2023-01-12T15:46:48.873Z,7.73
2023-01-12T15:49:15.952Z,8.33
2023-01-12T15:51:46.547Z,8.32
2023-01-12T15:54:13.883Z,7.96
2023-01-12T15:56:40.742Z,8.17
2023-01-12T15:59:07.305Z,8.16
2023-01-12T16:02:00.368Z,8.32
2023-01-12T16:04:43.949Z,8.34
2023-01-12T16:07:10.845Z,8.32
2023-01-12T16:09:37.476Z,8.30
2023-01-12T16:12:04.294Z,7.96
2023-01-12T16:14:30.923Z,8.21
2023-01-12T16:16:57.475Z,8.11
2023-01-12T16:19:24.252Z,8.19
2023-01-12T16:21:55.067Z,8.30
2023-01-12T16:24:24.134Z,8.27
2023-01-12T16:26:50.768Z,8.28
2023-01-12T16:29:19.274Z,8.29
2023-01-12T16:31:46.015Z,7.43
2023-01-12T16:34:12.852Z,8.29
2023-01-12T16:36:39.483Z,8.26
2023-01-12T16:39:06.098Z,7.62
2023-01-12T16:41:32.741Z,7.93
2023-01-12T16:43:59.411Z,7.65
2023-01-12T16:46:25.950Z,8.29
2023-01-12T16:48:55.259Z,7.96
2023-01-12T16:51:22.321Z,8.28
2023-01-12T16:53:49.144Z,8.24
2023-01-12T16:56:16.373Z,8.26
2023-01-12T16:58:47.896Z,8.29
2023-01-12T17:01:18.323Z,8.27
2023-01-12T17:03:45.208Z,8.26
2023-01-12T17:06:15.142Z,8.19
2023-01-12T17:08:43.039Z,7.82
2023-01-12T17:11:12.339Z,8.23
2023-01-12T17:13:39.794Z,8.20
2023-01-12T17:16:10.422Z,7.73
2023-01-12T17:18:40.161Z,7.00
2023-01-12T17:21:11.398Z,8.17
2023-01-12T17:23:41.964Z,8.16
2023-01-12T17:26:12.998Z,8.18
2023-01-12T17:28:41.061Z,8.18
2023-01-12T17:31:10.143Z,7.72
2023-01-12T17:33:37.935Z,8.18
2023-01-12T17:36:05.763Z,8.22
2023-01-12T17:38:33.142Z,7.38
2023-01-12T17:40:59.788Z,7.88
2023-01-12T17:43:26.962Z,8.20
2023-01-12T17:45:53.595Z,8.20
2023-01-12T17:48:20.261Z,7.22
2023-01-12T17:50:47.121Z,8.22
2023-01-12T17:53:14.624Z,7.47
2023-01-12T17:55:48.187Z,7.46
2023-01-12T17:58:18.416Z,8.22
2023-01-12T18:00:45.152Z,7.40
2023-01-12T18:03:11.809Z,8.22
2023-01-12T18:05:38.595Z,7.42
2023-01-12T18:08:05.286Z,7.78
2023-01-12T18:10:31.932Z,8.23
2023-01-12T18:12:58.577Z,7.86
2023-01-12T18:15:25.220Z,7.41
2023-01-12T18:17:51.820Z,8.08
2023-01-12T18:20:18.386Z,8.11
2023-01-12T18:22:45.001Z,8.23
2023-01-12T18:25:11.536Z,8.22
2023-01-12T18:27:38.209Z,7.89
2023-01-12T18:30:05.446Z,7.37
2023-01-12T18:32:32.089Z,8.11
2023-01-12T18:34:58.699Z,8.24
2023-01-12T18:37:25.343Z,8.25
2023-01-12T18:39:51.964Z,8.16
2023-01-12T18:42:37.164Z,7.93
2023-01-12T18:45:04.758Z,7.88
2023-01-12T18:47:50.237Z,8.28
2023-01-12T18:50:35.923Z,8.32
2023-01-12T18:53:21.389Z,8.29
2023-01-12T18:55:50.174Z,8.32
2023-01-12T18:58:16.868Z,7.82
2023-01-12T19:00:43.494Z,8.36
2023-01-12T19:03:10.128Z,8.35
2023-01-12T19:05:58.789Z,8.02
2023-01-12T19:08:28.242Z,7.83
2023-01-12T19:10:55.620Z,7.49
2023-01-12T19:13:40.859Z,8.28
2023-01-12T19:16:32.398Z,8.38
2023-01-12T19:18:58.822Z,8.36
2023-01-12T19:21:44.351Z,8.38
2023-01-12T19:24:30.130Z,8.29
2023-01-12T19:27:15.161Z,8.39
2023-01-12T19:29:44.675Z,8.03
2023-01-12T19:32:11.383Z,8.06
2023-01-12T19:34:37.984Z,8.44
2023-01-12T19:37:04.948Z,8.45
2023-01-12T19:39:59.612Z,8.46
2023-01-12T19:42:47.029Z,8.47
2023-01-12T19:45:14.338Z,8.50
2023-01-12T19:47:40.988Z,8.48
2023-01-12T19:50:10.639Z,8.49
2023-01-12T19:52:38.406Z,7.62
2023-01-12T19:55:11.272Z,8.02
2023-01-12T19:57:38.926Z,8.52
2023-01-12T20:00:11.472Z,8.23
2023-01-12T20:02:41.556Z,8.09
2023-01-12T20:05:08.464Z,7.58
2023-01-12T20:07:35.131Z,7.84
2023-01-12T20:10:01.856Z,6.95
2023-01-12T20:12:28.551Z,8.54
2023-01-12T20:14:55.119Z,8.18
2023-01-12T20:17:21.780Z,8.47
2023-01-12T20:19:48.946Z,8.24
2023-01-12T20:22:15.525Z,8.43
2023-01-12T20:24:42.177Z,8.06
2023-01-12T20:27:08.891Z,8.28
2023-01-12T20:29:35.957Z,7.57
2023-01-12T20:32:03.417Z,7.82
2023-01-12T20:34:31.191Z,7.63
2023-01-12T20:36:57.860Z,8.27
2023-01-12T20:39:24.488Z,7.61
2023-01-12T20:41:51.217Z,8.21
2023-01-12T20:44:19.347Z,7.99
2023-01-12T20:46:47.233Z,7.35
2023-01-12T20:49:14.026Z,8.12
2023-01-12T20:51:40.648Z,8.07
2023-01-12T20:54:07.953Z,7.72
2023-01-12T20:56:34.566Z,7.89
2023-01-12T20:59:01.401Z,7.89
2023-01-12T21:01:28.163Z,7.98
2023-01-12T21:03:55.127Z,7.98
2023-01-12T21:06:22.228Z,7.95
2023-01-12T21:08:48.900Z,7.14
2023-01-12T21:11:18.389Z,7.15
2023-01-12T21:13:45.249Z,7.86
2023-01-12T21:16:18.926Z,7.78
2023-01-12T21:18:46.652Z,6.62
2023-01-12T21:21:13.284Z,7.88
2023-01-12T21:23:40.037Z,7.10
2023-01-12T21:26:08.097Z,7.32
2023-01-12T21:28:37.975Z,7.82
2023-01-12T21:31:05.804Z,7.84
2023-01-12T21:33:33.219Z,7.74
2023-01-12T21:35:59.889Z,7.32
2023-01-12T21:38:27.470Z,7.73
2023-01-12T21:40:55.061Z,7.46
2023-01-12T21:43:22.240Z,7.80
2023-01-12T21:45:51.872Z,7.83
2023-01-12T21:48:20.970Z,7.77
2023-01-12T21:50:48.100Z,7.76
2023-01-12T21:53:19.757Z,7.78
2023-01-12T21:55:58.242Z,7.77
2023-01-12T21:58:25.723Z,6.84
2023-01-12T22:00:52.719Z,7.72
2023-01-12T22:03:19.349Z,7.71
2023-01-12T22:05:47.775Z,7.52
2023-01-12T22:08:14.431Z,7.68
2023-01-12T22:10:41.069Z,6.60
2023-01-12T22:13:12.718Z,7.08
2023-01-12T22:15:39.303Z,7.59
2023-01-12T22:18:06.919Z,7.71
2023-01-12T22:20:34.143Z,7.18
2023-01-12T22:23:00.811Z,6.97
2023-01-12T22:25:28.500Z,7.57
2023-01-12T22:27:56.611Z,6.89
2023-01-12T22:30:24.171Z,7.68
2023-01-12T22:32:55.518Z,7.67
2023-01-12T22:35:23.217Z,7.65
2023-01-12T22:37:49.791Z,7.65
2023-01-12T22:40:16.610Z,7.28
2023-01-12T22:43:02.002Z,7.61
2023-01-12T22:45:28.606Z,7.60
2023-01-12T22:47:56.323Z,7.59
2023-01-12T22:50:24.365Z,7.63
2023-01-12T22:52:52.739Z,7.50
2023-01-12T22:55:24.150Z,7.67
2023-01-12T22:57:50.587Z,7.69
2023-01-12T23:00:18.310Z,7.64
2023-01-12T23:03:00.898Z,7.75
2023-01-12T23:05:35.121Z,7.79
2023-01-12T23:08:03.763Z,7.83
2023-01-12T23:10:30.443Z,7.12
2023-01-12T23:13:15.719Z,6.83
2023-01-12T23:15:55.499Z,7.87
2023-01-12T23:18:28.603Z,7.93
2023-01-12T23:21:15.339Z,7.96
2023-01-12T23:23:47.410Z,7.98
2023-01-12T23:26:23.743Z,7.99
2023-01-12T23:28:53.648Z,7.10
2023-01-12T23:31:22.722Z,8.02
2023-01-12T23:33:50.109Z,6.94
2023-01-12T23:36:19.325Z,8.06
2023-01-12T23:38:46.260Z,7.07
2023-01-12T23:41:19.136Z,8.09
2023-01-12T23:43:47.365Z,6.75
2023-01-12T23:46:16.847Z,8.16
2023-01-12T23:48:43.755Z,8.18
2023-01-12T23:51:10.473Z,8.19
2023-01-12T23:53:37.094Z,8.19
2023-01-12T23:56:05.806Z,8.22
2023-01-12T23:58:33.012Z,8.22
